createdAt,value
2022-11-05T06:13:53.541Z,146.03
2022-11-05T06:17:03.494Z,231.53
2022-11-05T06:20:14.165Z,167.60
2022-11-05T06:23:24.071Z,157.07
2022-11-05T06:26:33.964Z,166.73
2022-11-05T06:29:45.170Z,155.10
2022-11-05T06:32:55.084Z,136.37
2022-11-05T06:36:06.730Z,171.63
2022-11-05T06:39:16.615Z,132.40
2022-11-05T06:42:26.848Z,191.13
2022-11-05T06:45:38.239Z,172.17
2022-11-05T06:48:48.536Z,176.13
2022-11-05T06:51:59.275Z,164.90
2022-11-05T06:55:09.843Z,159.07
2022-11-05T06:58:19.810Z,171.43
2022-11-05T07:01:31.109Z,142.83
2022-11-05T07:04:41.128Z,142.27
2022-11-05T07:07:51.119Z,166.50
2022-11-05T07:11:01.135Z,180.37
2022-11-05T07:14:11.013Z,148.37
2022-11-05T07:17:23.150Z,175.57
2022-11-05T07:20:34.528Z,165.73
2022-11-05T07:23:44.580Z,194.10
2022-11-05T07:26:54.478Z,158.93
2022-11-05T07:30:04.714Z,148.37
2022-11-05T07:33:15.954Z,181.27
2022-11-05T07:36:25.953Z,130.07
2022-11-05T07:39:35.857Z,142.27
2022-11-05T07:42:46.729Z,208.93
2022-11-05T07:45:56.649Z,169.87
2022-11-05T07:49:07.906Z,150.00
2022-11-05T07:52:17.858Z,137.37
2022-11-05T07:55:27.795Z,196.83
2022-11-05T07:58:38.283Z,153.00
2022-11-05T08:01:48.354Z,207.10
2022-11-05T08:04:59.739Z,168.30
2022-11-05T08:08:11.713Z,158.87
2022-11-05T08:11:21.615Z,151.93
2022-11-05T08:14:31.503Z,95.23
2022-11-05T08:17:41.840Z,138.67
2022-11-05T08:20:53.065Z,176.30
2022-11-05T08:24:02.993Z,176.63
2022-11-05T08:27:12.950Z,116.93
2022-11-05T08:30:23.107Z,65.00
2022-11-05T08:51:44.713Z,49.10
2022-11-05T08:54:54.693Z,41.10
2022-11-05T08:58:06.107Z,39.53
2022-11-05T09:01:16.253Z,34.57
2022-11-05T09:04:26.193Z,28.10
2022-11-05T09:07:37.422Z,38.57
2022-11-05T09:10:49.783Z,34.63
2022-11-05T09:13:59.753Z,31.93
2022-11-05T09:17:16.886Z,49.60
2022-11-05T09:20:27.094Z,62.07
2022-11-05T09:23:38.348Z,71.30
2022-11-05T09:26:48.354Z,82.97
2022-11-05T09:29:58.277Z,90.33
2022-11-05T09:33:08.372Z,85.67
2022-11-05T09:36:18.374Z,85.33
2022-11-05T09:39:29.739Z,75.83
2022-11-05T09:42:46.169Z,62.70
2022-11-05T09:45:59.859Z,75.23
2022-11-05T09:49:21.751Z,81.57
2022-11-05T09:52:34.253Z,85.07
2022-11-05T09:55:49.266Z,86.90
2022-11-05T09:59:03.080Z,61.77
2022-11-05T10:02:21.692Z,55.70
2022-11-05T10:05:35.131Z,65.53
2022-11-05T10:08:47.838Z,56.97
2022-11-05T10:12:06.441Z,63.13
2022-11-05T10:15:20.585Z,55.93
2022-11-05T10:18:34.521Z,59.63
2022-11-05T10:22:05.455Z,51.53
2022-11-05T10:25:19.361Z,57.80
2022-11-05T10:28:33.749Z,53.60
2022-11-05T10:31:44.516Z,58.80
2022-11-05T10:34:58.313Z,53.77
2022-11-05T10:38:14.232Z,56.90
2022-11-05T10:41:38.392Z,46.20
2022-11-05T10:44:57.991Z,52.77
2022-11-05T10:48:28.031Z,49.53
2022-11-05T10:51:38.299Z,47.73
2022-11-05T10:54:49.826Z,48.07
2022-11-05T10:58:10.513Z,49.23
2022-11-05T11:01:23.923Z,48.70
2022-11-05T11:04:37.909Z,51.57
2022-11-05T11:07:55.224Z,56.93
2022-11-05T11:11:09.099Z,58.37
2022-11-05T11:14:22.420Z,64.07
2022-11-05T11:17:33.859Z,52.97
2022-11-05T11:20:46.601Z,59.30
2022-11-05T11:23:57.756Z,59.00
2022-11-05T11:27:14.149Z,51.57
2022-11-05T11:30:27.494Z,50.77
2022-11-05T11:33:40.732Z,50.20
2022-11-05T11:36:55.042Z,46.53
2022-11-05T11:40:14.619Z,42.87
2022-11-05T11:43:29.045Z,40.67
2022-11-05T11:46:39.220Z,41.60
2022-11-05T11:49:52.419Z,39.30
2022-11-05T11:53:18.388Z,44.60
2022-11-05T11:56:29.157Z,47.40
2022-11-05T12:00:07.373Z,42.50
2022-11-05T12:03:24.556Z,46.23
2022-11-05T12:06:42.160Z,44.63
2022-11-05T12:10:04.358Z,52.20
2022-11-05T12:13:40.795Z,48.97
2022-11-05T12:17:01.766Z,44.73
2022-11-05T12:20:25.400Z,45.83
2022-11-05T12:23:58.382Z,57.07
2022-11-05T12:27:21.605Z,56.33
2022-11-05T12:30:43.570Z,58.10
2022-11-05T12:34:04.209Z,55.43
2022-11-05T12:37:23.069Z,57.50
2022-11-05T12:40:47.924Z,62.70
2022-11-05T12:44:14.303Z,90.67
2022-11-05T12:47:37.897Z,113.83
2022-11-05T12:50:53.644Z,81.37
2022-11-05T12:54:15.921Z,107.60
2022-11-05T12:57:31.617Z,76.17
2022-11-05T13:00:45.281Z,53.10
2022-11-05T13:03:58.709Z,57.83
2022-11-05T13:07:12.936Z,37.27
2022-11-05T13:10:29.193Z,33.97
2022-11-05T13:13:47.581Z,34.77
2022-11-05T13:17:01.877Z,35.80
2022-11-05T13:20:17.709Z,32.73
2022-11-05T13:23:33.595Z,51.53
2022-11-05T13:26:50.903Z,34.60
2022-11-05T13:30:05.252Z,30.20
2022-11-05T13:33:20.586Z,47.93
2022-11-05T13:36:47.377Z,47.17
2022-11-05T13:40:00.922Z,70.90
2022-11-05T13:43:24.192Z,63.70
2022-11-05T13:46:51.945Z,64.47
2022-11-05T13:50:24.252Z,58.07
2022-11-05T13:53:49.592Z,62.60
2022-11-05T13:57:12.267Z,88.13
2022-11-05T14:00:24.401Z,84.07
2022-11-05T14:03:36.299Z,89.03
2022-11-05T14:06:46.405Z,87.27
2022-11-05T14:09:58.233Z,118.23
2022-11-05T14:13:21.680Z,76.27
2022-11-05T14:16:49.132Z,88.27
2022-11-05T14:20:25.572Z,108.67
2022-11-05T14:23:41.000Z,65.83
2022-11-05T14:27:20.608Z,76.80
2022-11-05T14:30:41.985Z,61.47
2022-11-05T14:34:01.173Z,106.63
2022-11-05T14:37:23.513Z,73.80
2022-11-05T14:40:37.819Z,79.30
2022-11-05T14:43:52.899Z,79.80
2022-11-05T14:47:05.785Z,60.93
2022-11-05T14:50:22.376Z,78.10
2022-11-05T14:53:37.056Z,67.20
2022-11-05T14:56:54.963Z,70.07
2022-11-05T15:00:07.807Z,79.73
2022-11-05T15:03:31.825Z,46.77
2022-11-05T15:07:13.216Z,70.13
2022-11-05T15:10:31.515Z,64.30
2022-11-05T15:13:49.690Z,81.57
2022-11-05T15:17:05.233Z,59.87
2022-11-05T15:20:18.399Z,73.27
2022-11-05T15:23:40.599Z,56.90
2022-11-05T15:26:59.561Z,48.47
2022-11-05T15:30:16.594Z,57.50
2022-11-05T15:33:27.061Z,65.13
2022-11-05T15:36:37.050Z,52.00
2022-11-05T15:39:48.380Z,47.10
2022-11-05T15:43:16.402Z,57.40
2022-11-05T15:46:28.196Z,47.50
2022-11-05T15:49:38.251Z,60.10
2022-11-05T15:52:51.085Z,61.93
2022-11-05T15:56:10.841Z,67.93
2022-11-05T15:59:23.929Z,67.70
2022-11-05T16:02:35.770Z,71.70
2022-11-05T16:05:48.331Z,98.77
2022-11-05T16:08:58.346Z,94.90
2022-11-05T16:12:24.158Z,75.77
2022-11-05T16:15:35.489Z,111.90
2022-11-05T16:18:46.551Z,97.00
2022-11-05T16:21:56.520Z,120.70
2022-11-05T16:25:28.846Z,112.00
2022-11-05T16:28:38.894Z,138.83
2022-11-05T16:31:53.726Z,137.07
2022-11-05T16:35:06.704Z,138.50
2022-11-05T16:38:18.052Z,121.90
2022-11-05T16:41:28.513Z,151.53
2022-11-05T16:44:38.469Z,138.47
2022-11-05T16:47:50.296Z,142.83
2022-11-05T16:51:00.297Z,131.90
2022-11-05T16:54:10.467Z,137.60
2022-11-05T16:57:26.619Z,143.03
2022-11-05T17:00:36.551Z,133.77
2022-11-05T17:03:49.306Z,141.40
2022-11-05T17:06:59.192Z,138.40
2022-11-05T17:10:09.332Z,117.27
2022-11-05T17:13:20.390Z,113.77
2022-11-05T17:16:30.403Z,119.03
2022-11-05T17:19:42.562Z,132.80
2022-11-05T17:22:52.616Z,155.20
2022-11-05T17:26:04.766Z,143.83
2022-11-05T17:29:14.873Z,140.10
2022-11-05T17:32:24.972Z,156.60
2022-11-05T17:35:39.082Z,89.47
2022-11-05T17:38:49.076Z,85.50
2022-11-05T17:41:59.026Z,81.87
2022-11-05T17:45:10.831Z,91.13
2022-11-05T17:48:21.919Z,145.33
2022-11-05T17:51:34.647Z,115.00
2022-11-05T17:54:44.635Z,101.70
2022-11-05T17:57:54.694Z,78.93
2022-11-05T18:01:04.772Z,80.20
2022-11-05T18:04:14.857Z,100.03
2022-11-05T18:07:26.075Z,150.13
2022-11-05T18:10:37.968Z,93.20
2022-11-05T18:13:48.091Z,117.83
2022-11-05T18:17:00.296Z,181.23
2022-11-05T18:20:17.397Z,179.47
2022-11-05T18:23:30.210Z,158.77
2022-11-05T18:26:40.306Z,105.10
2022-11-05T18:29:50.358Z,80.27
2022-11-05T18:33:00.505Z,145.67
2022-11-05T18:36:17.316Z,155.80
2022-11-05T18:39:29.711Z,110.13
2022-11-05T18:42:40.285Z,86.77
2022-11-05T18:45:56.801Z,112.50
2022-11-05T18:49:07.081Z,177.50
2022-11-05T18:52:17.231Z,104.47
2022-11-05T18:55:28.585Z,74.30
2022-11-05T18:58:38.747Z,64.67
2022-11-05T19:01:49.860Z,68.97
2022-11-05T19:05:27.351Z,85.93
2022-11-05T19:08:32.052Z,66.63
2022-11-05T19:11:43.278Z,72.50
2022-11-05T19:14:56.701Z,56.13
2022-11-05T19:18:09.711Z,52.93
2022-11-05T19:21:21.775Z,79.73
2022-11-05T19:24:31.803Z,72.17
2022-11-05T19:27:43.788Z,59.03
2022-11-05T19:30:53.781Z,68.50
2022-11-05T19:34:05.519Z,51.57
2022-11-05T19:37:15.717Z,61.00
2022-11-05T19:40:25.756Z,67.00
2022-11-05T19:43:38.310Z,60.30
2022-11-05T19:46:48.218Z,57.97
2022-11-05T19:49:58.167Z,66.37
2022-11-05T19:53:08.445Z,71.63
2022-11-05T19:56:22.241Z,62.53
2022-11-05T19:59:33.716Z,65.43
2022-11-05T20:02:46.415Z,85.67
2022-11-05T20:05:56.719Z,58.70
2022-11-05T20:09:24.265Z,63.77
2022-11-05T20:12:34.490Z,50.50
2022-11-05T20:15:46.666Z,69.83
2022-11-05T20:18:57.926Z,68.97
2022-11-05T20:22:07.825Z,57.03
2022-11-05T20:25:18.043Z,61.13
2022-11-05T20:28:28.440Z,52.03
2022-11-05T20:31:40.537Z,58.90
2022-11-05T20:34:50.458Z,77.93
2022-11-05T20:38:00.412Z,59.77
2022-11-05T20:41:12.420Z,71.57
2022-11-05T20:44:22.388Z,86.13
2022-11-05T20:47:33.752Z,84.97
2022-11-05T20:50:44.782Z,77.47
2022-11-05T20:53:56.568Z,100.27
2022-11-05T20:57:06.629Z,114.90
2022-11-05T21:00:17.664Z,109.83
2022-11-05T21:03:29.115Z,105.80
2022-11-05T21:06:39.191Z,122.17
2022-11-05T21:09:49.092Z,112.97
2022-11-05T21:12:59.143Z,118.60
2022-11-05T21:16:15.393Z,110.93
2022-11-05T21:19:29.515Z,113.63
2022-11-05T21:22:43.029Z,109.77
2022-11-05T21:25:52.977Z,113.17
2022-11-05T21:29:03.117Z,121.80
2022-11-05T21:32:13.086Z,113.33
2022-11-05T21:35:24.627Z,107.90
2022-11-05T21:38:34.512Z,117.77
2022-11-05T21:41:44.615Z,112.47
2022-11-05T21:44:59.215Z,125.37
2022-11-05T21:48:11.265Z,120.67
2022-11-05T21:51:36.709Z,114.13
2022-11-05T21:54:58.371Z,119.57
2022-11-05T21:58:24.530Z,108.33
2022-11-05T22:01:34.788Z,127.00
2022-11-05T22:04:46.832Z,113.73
2022-11-05T22:07:58.094Z,109.40
2022-11-05T22:11:07.995Z,129.03
2022-11-05T22:14:17.973Z,125.70
2022-11-05T22:17:28.018Z,128.47
2022-11-05T22:20:39.774Z,125.20
2022-11-05T22:23:52.240Z,133.00
2022-11-05T22:27:04.436Z,123.37
2022-11-05T22:30:15.622Z,153.00
